الصفحة الرئيسية
METAR-TAF:

METAR-TAF

مطار :

مطار ويلينغتون الدولي

ويلينغتون, نيوزيلندا

دائرة عرض: 41-20S, خط طول: 174-48E, ارتفاع: 12 متر

مراقبة الطقس الحالي

تاريخ ووقت الإصدار 24 دقيقة قبل الساعة 15:30UTC
ريح 16 عقدة من الشمال الغربي تتزايد حتى 28 عقدة, الاتجاه يتراوح بين الغرب/الشمال الغربي و الشمال
درجة الحرارة 13°درجة مئوية
الرطوبة 62%
ضغط 985 hPa
الرؤية 10 كم أو أكثر

METAR: NZWN 221530Z AUTO 32016G28KT 290V360 9999 NCD 13/06 Q0985 NOSIG

زمن: 03:54 (15:54 UTC)

توقعات

تاريخ ووقت الإصدار 4ساعات و 50 دقيقة قبل الساعة 11:04UTC
التوقعات صالحة من22 الساعة 12 UTC إلى 23 الساعة 12 UTC
ريح 15 عقدة من الشمال/الشمال الغربي تتزايد حتى 25 عقدة
الرؤية 10 كم أو أكثر
غيوم قليلة على ارتفاع 4000 قدم
أصبح
من 23 الساعة 02 UTC إلى 23 الساعة 04 UTC
ريح 15 عقدة من الجنوب
مؤقت
من 23 الساعة 02 UTC إلى 23 الساعة 04 UTC
الرؤية: 7000 متر
زخات من المطر

TAF: NZWN 221104Z 2212/2312 34015G25KT 9999 FEW040 BECMG 2302/2304 18015KT TEMPO 2302/2304 7000 SHRA

أرصاد الطقس والتوقعات من أكثر من 4000 مطار (تقارير الطقس للمطار METAR والتنبؤ بالطقس بالمطارTAF).

المحطات المتاحة هي النقط الصفراء والحمراء على الخريطة.

حرك المؤشر فوق النقطة لمعرفة اسم المحطة.

ثم انقر لمعرفة أرصاد وتوقعات الطقس.

لتغيير الخارطة: اضغط على الأزرار الخضراء مع رمز الصليب الأسود للتكبير. على الزر الأخضر مع شرطة للتصغير، أو على الأسهم الخضراء للخرائط المجاورة.


METAR-TAF: